createdAt,value
2023-03-26T00:00:20.014Z,88.93
2023-03-26T00:02:25.061Z,88.87
2023-03-26T00:04:33.946Z,88.99
2023-03-26T00:06:41.943Z,89.06
2023-03-26T00:08:50.280Z,88.79
2023-03-26T00:10:55.243Z,89.20
2023-03-26T00:13:00.102Z,89.30
2023-03-26T00:15:04.907Z,89.36
2023-03-26T00:17:10.386Z,89.67
2023-03-26T00:19:15.699Z,90.15
2023-03-26T00:21:26.401Z,89.98
2023-03-26T00:23:37.875Z,89.74
2023-03-26T00:25:43.694Z,89.77
2023-03-26T00:27:49.786Z,90.33
2023-03-26T00:29:56.491Z,90.11
2023-03-26T00:32:01.221Z,90.28
2023-03-26T00:34:06.034Z,90.72
2023-03-26T00:36:14.907Z,90.83
2023-03-26T00:38:22.596Z,90.65
2023-03-26T00:40:27.398Z,90.90
2023-03-26T00:42:32.816Z,90.29
2023-03-26T00:44:37.575Z,90.71
2023-03-26T00:46:42.888Z,90.69
2023-03-26T00:48:48.370Z,91.19
2023-03-26T00:50:53.704Z,91.08
2023-03-26T00:52:59.072Z,91.53
2023-03-26T00:55:06.605Z,91.29
2023-03-26T00:57:20.211Z,91.30
2023-03-26T00:59:32.142Z,91.03
2023-03-26T01:01:36.869Z,91.64
2023-03-26T01:03:53.198Z,90.97
2023-03-26T01:06:11.185Z,91.14
2023-03-26T01:08:22.872Z,91.52
2023-03-26T01:10:38.833Z,91.85
2023-03-26T01:12:44.306Z,91.95
2023-03-26T01:14:51.187Z,91.41
2023-03-26T01:16:58.182Z,91.97
2023-03-26T01:19:03.165Z,91.80
2023-03-26T01:21:09.934Z,91.78
2023-03-26T01:23:15.964Z,92.22
2023-03-26T01:25:26.184Z,92.18
2023-03-26T01:27:43.164Z,92.27
2023-03-26T01:29:54.312Z,92.48
2023-03-26T01:32:10.073Z,92.43
2023-03-26T01:34:24.961Z,92.56
2023-03-26T01:36:38.857Z,93.10
2023-03-26T01:38:48.940Z,93.57
2023-03-26T01:41:02.750Z,93.33
2023-03-26T01:43:14.504Z,93.51
2023-03-26T01:45:23.986Z,92.94
2023-03-26T01:47:29.266Z,93.55
2023-03-26T01:49:34.766Z,93.95
2023-03-26T01:51:39.744Z,93.97
2023-03-26T01:53:46.939Z,94.16
2023-03-26T01:56:04.548Z,94.07
2023-03-26T01:58:16.263Z,93.96
2023-03-26T02:00:26.163Z,93.65
2023-03-26T02:02:38.991Z,94.53
2023-03-26T02:04:53.581Z,94.00
2023-03-26T02:07:05.918Z,94.97
2023-03-26T02:09:18.542Z,94.52
2023-03-26T02:11:34.765Z,95.39
2023-03-26T02:13:41.090Z,95.48
2023-03-26T02:15:58.278Z,95.24
2023-03-26T02:18:04.258Z,95.44
2023-03-26T02:20:12.096Z,94.99
2023-03-26T02:22:18.047Z,95.30
2023-03-26T02:24:23.565Z,95.09
2023-03-26T02:26:34.048Z,95.21
2023-03-26T02:28:41.831Z,94.82
2023-03-26T02:30:47.673Z,95.15
2023-03-26T02:32:52.550Z,95.09
2023-03-26T02:34:57.437Z,95.18
2023-03-26T02:37:02.962Z,95.03
2023-03-26T02:39:07.662Z,95.00
2023-03-26T02:41:12.513Z,94.70
2023-03-26T02:43:19.826Z,94.61
2023-03-26T02:45:24.544Z,95.05
2023-03-26T02:47:29.331Z,95.01
2023-03-26T02:49:34.472Z,94.59
2023-03-26T02:51:39.510Z,94.78
2023-03-26T02:53:44.674Z,94.69
2023-03-26T02:55:49.436Z,94.77
2023-03-26T02:57:54.185Z,94.67
2023-03-26T03:00:02.790Z,94.58
2023-03-26T03:02:07.717Z,94.91
2023-03-26T03:04:12.454Z,94.98
2023-03-26T03:06:19.082Z,94.57
2023-03-26T03:08:26.513Z,94.57
2023-03-26T03:10:34.562Z,94.53
2023-03-26T03:12:39.752Z,94.68
2023-03-26T03:14:46.946Z,94.58
2023-03-26T03:16:54.356Z,94.32
2023-03-26T03:19:03.770Z,94.60
2023-03-26T03:21:09.884Z,94.58
2023-03-26T03:23:14.754Z,94.45
2023-03-26T03:25:22.391Z,94.21
2023-03-26T03:27:28.577Z,93.93
2023-03-26T03:29:35.618Z,93.81
2023-03-26T03:31:41.459Z,93.59
2023-03-26T03:33:51.486Z,93.65
2023-03-26T03:35:56.501Z,93.50
2023-03-26T03:38:02.026Z,93.80
2023-03-26T03:40:08.867Z,93.59
2023-03-26T03:42:14.485Z,93.81
2023-03-26T03:44:19.431Z,93.44
2023-03-26T03:46:24.315Z,93.43
2023-03-26T03:48:29.412Z,93.35
2023-03-26T03:50:36.916Z,93.59
2023-03-26T03:52:41.695Z,93.69
2023-03-26T03:54:48.161Z,93.44
2023-03-26T03:56:52.917Z,93.31
2023-03-26T03:58:58.554Z,93.41
2023-03-26T04:01:04.803Z,93.34
2023-03-26T04:03:10.237Z,93.06
2023-03-26T04:05:15.995Z,93.38
2023-03-26T04:07:23.577Z,93.29
2023-03-26T04:09:28.496Z,93.00
2023-03-26T04:11:33.404Z,93.34
2023-03-26T04:13:38.173Z,93.31
2023-03-26T04:15:43.149Z,93.07
2023-03-26T04:17:48.051Z,93.40
2023-03-26T04:19:53.267Z,93.44
2023-03-26T04:22:02.485Z,93.27
2023-03-26T04:24:11.071Z,93.19
2023-03-26T04:26:20.103Z,93.32
2023-03-26T04:28:31.374Z,93.72
2023-03-26T04:30:38.502Z,93.60
2023-03-26T04:32:44.919Z,93.63
2023-03-26T04:34:50.128Z,93.59
2023-03-26T04:36:55.925Z,93.47
2023-03-26T04:39:03.897Z,93.62
2023-03-26T04:41:13.341Z,93.21
2023-03-26T04:43:19.626Z,93.22
2023-03-26T04:45:24.300Z,93.45
2023-03-26T04:47:31.796Z,93.50
2023-03-26T04:49:36.708Z,93.74
2023-03-26T04:51:45.049Z,93.73
2023-03-26T04:53:57.107Z,93.75
2023-03-26T04:56:06.355Z,93.73
2023-03-26T04:58:14.332Z,93.72
2023-03-26T05:00:20.805Z,93.54
2023-03-26T05:02:26.298Z,93.76
2023-03-26T05:04:34.219Z,93.77
2023-03-26T05:06:39.970Z,93.70
2023-03-26T05:08:44.805Z,93.98
2023-03-26T05:10:49.628Z,93.84
2023-03-26T05:12:54.608Z,93.61
2023-03-26T05:15:02.171Z,94.16
2023-03-26T05:17:10.935Z,93.94
2023-03-26T05:19:16.015Z,93.93
2023-03-26T05:21:21.108Z,93.87
2023-03-26T05:23:27.706Z,93.96
2023-03-26T05:25:32.791Z,93.99
2023-03-26T05:27:37.476Z,94.19
2023-03-26T05:29:42.201Z,94.24
2023-03-26T05:31:49.663Z,94.29
2023-03-26T05:33:55.312Z,94.77
2023-03-26T05:36:07.366Z,94.06
2023-03-26T05:38:12.123Z,94.44
2023-03-26T05:40:18.363Z,94.41
2023-03-26T05:42:23.373Z,94.19
2023-03-26T05:44:28.391Z,94.32
2023-03-26T05:46:33.126Z,94.24
2023-03-26T05:48:41.224Z,94.07
2023-03-26T05:50:46.067Z,94.10
2023-03-26T05:52:50.797Z,93.98
2023-03-26T05:54:55.715Z,93.73
2023-03-26T05:57:00.955Z,93.88
2023-03-26T05:59:05.708Z,94.07
2023-03-26T06:01:16.843Z,94.38
2023-03-26T06:03:23.424Z,94.14
2023-03-26T06:05:32.886Z,94.48
2023-03-26T06:07:37.991Z,94.61
2023-03-26T06:09:43.916Z,94.33
2023-03-26T06:11:48.949Z,94.44
2023-03-26T06:13:54.004Z,94.69
2023-03-26T06:15:58.991Z,94.27
2023-03-26T06:18:04.003Z,94.18
2023-03-26T06:20:10.478Z,94.47
2023-03-26T06:22:19.169Z,94.24
2023-03-26T06:24:24.115Z,94.17
2023-03-26T06:26:28.991Z,94.47
2023-03-26T06:28:33.920Z,94.48
2023-03-26T06:30:38.999Z,94.57
2023-03-26T06:32:46.137Z,94.67
2023-03-26T06:34:51.067Z,94.18
2023-03-26T06:36:55.926Z,94.00
2023-03-26T06:39:07.843Z,94.08
2023-03-26T06:41:12.888Z,94.39
2023-03-26T06:43:17.620Z,93.96
2023-03-26T06:45:22.378Z,94.20
2023-03-26T06:47:27.407Z,94.00
2023-03-26T06:49:32.266Z,93.94
2023-03-26T06:51:38.813Z,94.48
2023-03-26T06:53:44.036Z,94.18
2023-03-26T06:55:51.458Z,94.23
2023-03-26T06:57:58.437Z,94.09
2023-03-26T07:00:04.039Z,93.76
2023-03-26T07:02:08.809Z,94.21
2023-03-26T07:04:13.697Z,94.19
2023-03-26T07:06:20.139Z,94.11
2023-03-26T07:08:26.423Z,94.24
2023-03-26T07:10:32.091Z,94.07
2023-03-26T07:12:43.063Z,94.57
2023-03-26T07:14:48.304Z,94.53
2023-03-26T07:16:53.128Z,94.46
2023-03-26T07:18:57.909Z,94.36
2023-03-26T07:21:03.538Z,95.00
2023-03-26T07:23:09.038Z,94.46
2023-03-26T07:25:16.093Z,94.83
2023-03-26T07:27:38.958Z,94.72
2023-03-26T07:29:51.824Z,94.71
2023-03-26T07:32:03.916Z,94.25
2023-03-26T07:34:22.306Z,93.95
2023-03-26T07:36:35.350Z,94.41
2023-03-26T07:38:52.040Z,94.69
2023-03-26T07:41:06.205Z,94.74
2023-03-26T07:43:24.625Z,94.70
2023-03-26T07:45:38.220Z,94.26
2023-03-26T07:47:47.237Z,95.00
2023-03-26T07:49:56.357Z,95.11
2023-03-26T07:52:03.072Z,94.92
2023-03-26T07:54:08.909Z,94.66
2023-03-26T07:56:18.394Z,94.62
2023-03-26T07:58:42.617Z,94.25
2023-03-26T08:00:55.285Z,94.40
2023-03-26T08:03:27.653Z,94.12
2023-03-26T08:05:36.864Z,93.80
2023-03-26T08:07:53.025Z,94.09
2023-03-26T08:10:06.787Z,94.25
2023-03-26T08:12:21.442Z,93.99
2023-03-26T08:14:46.396Z,93.90
2023-03-26T08:16:58.708Z,93.88
2023-03-26T08:19:12.972Z,93.83
2023-03-26T08:21:22.555Z,93.91
2023-03-26T08:23:32.815Z,93.54
2023-03-26T08:25:42.523Z,93.81
2023-03-26T08:27:59.168Z,93.79
2023-03-26T08:30:11.630Z,94.24
2023-03-26T08:32:22.113Z,94.17
2023-03-26T08:34:26.999Z,94.44
2023-03-26T08:36:32.122Z,94.32
2023-03-26T08:38:36.932Z,94.31
2023-03-26T08:41:25.821Z,94.44
2023-03-26T08:43:54.457Z,94.01
2023-03-26T08:46:43.905Z,94.09
2023-03-26T08:49:17.712Z,93.45
2023-03-26T08:51:42.453Z,93.67
2023-03-26T08:54:18.906Z,93.21
2023-03-26T08:56:30.021Z,93.36
2023-03-26T08:59:09.072Z,92.86
2023-03-26T09:01:38.881Z,93.33
2023-03-26T09:04:08.693Z,92.46
2023-03-26T09:06:30.326Z,93.00
2023-03-26T09:09:19.266Z,93.22
2023-03-26T09:11:57.268Z,93.45
2023-03-26T09:14:24.557Z,93.30
2023-03-26T09:16:47.131Z,93.62
2023-03-26T09:19:24.341Z,92.98
2023-03-26T09:22:01.849Z,92.76
2023-03-26T09:24:37.767Z,93.03
2023-03-26T09:26:51.588Z,93.33
2023-03-26T09:29:38.522Z,93.67
2023-03-26T09:32:34.076Z,93.58
2023-03-26T09:35:01.931Z,93.63
2023-03-26T09:37:21.478Z,93.58
2023-03-26T09:39:49.194Z,94.15
2023-03-26T09:42:07.288Z,93.99
2023-03-26T09:44:50.826Z,94.00
2023-03-26T09:47:25.442Z,93.41
2023-03-26T09:49:45.788Z,93.82
2023-03-26T09:52:41.548Z,94.22
2023-03-26T09:55:20.438Z,93.99
2023-03-26T09:57:37.308Z,93.76
2023-03-26T10:00:13.462Z,93.58
2023-03-26T10:02:45.949Z,93.85
2023-03-26T10:05:11.901Z,93.69
2023-03-26T10:07:39.073Z,94.46
2023-03-26T10:09:53.979Z,94.49
2023-03-26T10:12:09.724Z,94.12
2023-03-26T10:14:23.724Z,92.98
2023-03-26T10:16:37.267Z,93.80
2023-03-26T10:18:56.751Z,93.80
2023-03-26T10:21:09.141Z,92.82
2023-03-26T10:23:40.315Z,92.80
2023-03-26T10:26:07.348Z,93.10
2023-03-26T10:28:31.802Z,92.07
2023-03-26T10:31:12.841Z,92.43
2023-03-26T10:33:34.641Z,92.06
2023-03-26T10:35:56.288Z,92.59
2023-03-26T10:38:16.870Z,92.27
2023-03-26T10:40:28.693Z,92.58
2023-03-26T10:42:58.259Z,91.88
2023-03-26T10:45:31.329Z,92.69
2023-03-26T10:47:58.658Z,92.36
2023-03-26T10:50:28.347Z,92.36
2023-03-26T10:52:37.895Z,91.56
2023-03-26T10:54:54.486Z,91.97
2023-03-26T10:57:07.429Z,92.10
2023-03-26T10:59:16.407Z,91.89
2023-03-26T11:01:35.098Z,91.62
2023-03-26T11:03:52.278Z,91.74
2023-03-26T11:06:04.489Z,90.60
2023-03-26T11:08:16.669Z,91.23
2023-03-26T11:10:28.303Z,90.87
2023-03-26T11:12:46.385Z,90.53
2023-03-26T11:15:00.535Z,91.18
2023-03-26T11:17:40.366Z,90.86
2023-03-26T11:19:53.241Z,91.40
2023-03-26T11:22:04.244Z,91.55
2023-03-26T11:24:40.039Z,91.71
2023-03-26T11:26:56.046Z,91.20
2023-03-26T11:29:31.645Z,90.03
2023-03-26T11:31:55.594Z,90.76
2023-03-26T11:34:06.552Z,90.48
2023-03-26T11:36:15.714Z,90.31
2023-03-26T11:38:27.013Z,90.38
2023-03-26T11:40:37.539Z,90.23
2023-03-26T11:42:46.597Z,90.29
2023-03-26T11:44:58.170Z,90.54
2023-03-26T11:47:10.316Z,89.98
2023-03-26T11:49:19.613Z,89.51
2023-03-26T11:51:31.064Z,89.53
2023-03-26T11:53:38.933Z,89.82
2023-03-26T11:55:47.716Z,89.09
2023-03-26T11:57:58.469Z,88.91
2023-03-26T12:00:17.024Z,89.87
2023-03-26T12:02:29.698Z,89.30
2023-03-26T12:04:40.875Z,88.95
2023-03-26T12:06:56.704Z,88.98
2023-03-26T12:09:02.000Z,88.25
2023-03-26T12:11:11.841Z,88.16
2023-03-26T12:13:36.975Z,88.03
2023-03-26T12:15:53.003Z,88.15
2023-03-26T12:17:59.882Z,88.11
2023-03-26T12:20:45.231Z,88.26
2023-03-26T12:22:54.291Z,88.95
2023-03-26T12:25:18.430Z,88.39
2023-03-26T12:27:28.688Z,88.11
2023-03-26T12:29:38.253Z,88.10
2023-03-26T12:31:55.685Z,88.11
2023-03-26T12:34:10.460Z,86.86
2023-03-26T12:36:29.746Z,87.76
2023-03-26T12:38:37.524Z,84.44
2023-03-26T12:40:43.614Z,84.98
2023-03-26T12:44:54.325Z,84.80
2023-03-26T12:45:24.281Z,83.55
2023-03-26T12:48:01.143Z,81.22
2023-03-26T12:50:02.538Z,81.48
2023-03-26T12:52:20.867Z,81.84
2023-03-26T12:54:43.744Z,82.30
2023-03-26T12:57:12.452Z,82.79
2023-03-26T12:59:33.400Z,82.30
2023-03-26T13:01:50.718Z,80.92
2023-03-26T13:04:18.542Z,80.90
2023-03-26T13:06:59.392Z,79.63
2023-03-26T13:09:32.170Z,78.62
2023-03-26T13:11:50.187Z,78.78
2023-03-26T13:14:10.419Z,77.87
2023-03-26T13:16:25.448Z,77.43
2023-03-26T13:18:50.889Z,78.01
2023-03-26T13:21:06.228Z,77.06
2023-03-26T13:23:19.997Z,76.47
2023-03-26T13:25:36.730Z,76.48
2023-03-26T13:27:55.624Z,77.03
2023-03-26T13:30:09.217Z,76.89
2023-03-26T13:32:22.597Z,75.50
2023-03-26T13:34:38.363Z,74.68
2023-03-26T13:36:58.100Z,73.96
2023-03-26T13:39:32.592Z,72.59
2023-03-26T13:41:50.719Z,73.38
2023-03-26T13:44:09.004Z,74.68
2023-03-26T13:46:27.674Z,74.13
2023-03-26T13:48:39.804Z,74.07
2023-03-26T13:50:47.730Z,73.24
2023-03-26T13:52:59.115Z,72.98
2023-03-26T13:55:20.800Z,71.70
2023-03-26T13:57:32.125Z,70.70
2023-03-26T13:59:41.919Z,71.44
2023-03-26T14:01:53.683Z,71.78
2023-03-26T14:04:04.358Z,70.02
2023-03-26T14:06:15.715Z,70.28
2023-03-26T14:08:28.977Z,69.35
2023-03-26T14:10:40.302Z,70.08
2023-03-26T14:12:55.480Z,68.92
2023-03-26T14:15:04.467Z,68.54
2023-03-26T14:17:19.106Z,67.90
2023-03-26T14:19:52.688Z,67.55
2023-03-26T14:22:06.970Z,67.69
2023-03-26T14:24:37.846Z,67.25
2023-03-26T14:27:05.590Z,67.84
2023-03-26T14:29:29.729Z,66.63
2023-03-26T14:31:41.999Z,66.67
2023-03-26T14:34:25.116Z,66.24
2023-03-26T14:36:49.585Z,66.93
2023-03-26T14:39:29.575Z,67.26
2023-03-26T14:41:46.099Z,66.83
2023-03-26T14:44:13.234Z,65.76
2023-03-26T14:46:30.401Z,65.92
2023-03-26T14:49:16.406Z,66.29
2023-03-26T14:51:35.396Z,67.24
2023-03-26T14:53:44.586Z,65.46
2023-03-26T14:56:21.263Z,64.43
2023-03-26T14:59:01.947Z,65.00
2023-03-26T15:01:32.132Z,64.28
2023-03-26T15:04:12.918Z,64.91
2023-03-26T15:07:10.483Z,65.08
2023-03-26T15:09:46.409Z,65.02
2023-03-26T15:12:12.535Z,64.51
2023-03-26T15:14:44.398Z,64.17
2023-03-26T15:17:29.862Z,65.39
2023-03-26T15:19:58.914Z,63.96
2023-03-26T15:22:41.015Z,64.61
2023-03-26T15:25:21.363Z,64.50
2023-03-26T15:27:50.169Z,64.79
2023-03-26T15:30:15.310Z,63.59
2023-03-26T15:32:52.957Z,63.99
2023-03-26T15:35:30.500Z,64.41
2023-03-26T15:38:14.923Z,65.06
2023-03-26T15:40:47.105Z,62.90
2023-03-26T15:43:03.425Z,62.91
2023-03-26T15:45:37.144Z,63.08
2023-03-26T15:48:01.787Z,64.02
2023-03-26T15:50:21.925Z,62.79
2023-03-26T15:52:33.190Z,63.02
2023-03-26T15:54:48.518Z,61.82
2023-03-26T15:57:07.483Z,61.84
2023-03-26T15:59:26.784Z,62.41
2023-03-26T16:01:46.296Z,62.06
2023-03-26T16:04:06.160Z,61.50
2023-03-26T16:06:32.094Z,60.78
2023-03-26T16:08:47.307Z,60.81
2023-03-26T16:10:56.190Z,60.81
2023-03-26T16:13:36.961Z,60.37
2023-03-26T16:15:42.939Z,59.69
2023-03-26T16:18:22.949Z,59.84
2023-03-26T16:20:33.604Z,60.05
2023-03-26T16:22:44.007Z,59.52
2023-03-26T16:25:29.068Z,59.19
2023-03-26T16:27:37.077Z,60.61
2023-03-26T16:30:20.604Z,60.13
2023-03-26T16:32:28.975Z,59.71
2023-03-26T16:34:42.864Z,58.58
2023-03-26T16:36:51.863Z,57.90
2023-03-26T16:39:11.865Z,58.89
2023-03-26T16:41:22.221Z,59.00
2023-03-26T16:44:06.238Z,58.39
2023-03-26T16:46:16.491Z,59.27
2023-03-26T16:48:28.834Z,59.29
2023-03-26T16:50:46.922Z,59.99
2023-03-26T16:53:02.257Z,61.31
2023-03-26T16:55:17.104Z,61.47
2023-03-26T16:57:28.959Z,61.49
2023-03-26T17:00:05.621Z,62.39
2023-03-26T17:02:26.824Z,62.57
2023-03-26T17:04:35.035Z,61.22
2023-03-26T17:07:01.990Z,62.17
2023-03-26T17:09:24.861Z,62.14
2023-03-26T17:11:40.291Z,62.36
2023-03-26T17:13:53.282Z,62.29
2023-03-26T17:16:07.926Z,62.94
2023-03-26T17:18:40.225Z,61.84
2023-03-26T17:20:56.076Z,61.80
2023-03-26T17:23:12.550Z,60.25
2023-03-26T17:25:34.003Z,59.75
2023-03-26T17:27:47.262Z,60.66
2023-03-26T17:30:26.267Z,59.96
2023-03-26T17:32:56.306Z,58.21
2023-03-26T17:35:07.065Z,58.34
2023-03-26T17:37:28.843Z,58.78
2023-03-26T17:40:12.459Z,59.92
2023-03-26T17:42:33.103Z,59.80
2023-03-26T17:44:48.072Z,60.28
2023-03-26T17:46:54.792Z,60.65
2023-03-26T17:49:06.102Z,61.14
2023-03-26T17:51:30.258Z,61.58
2023-03-26T17:53:43.781Z,61.62
2023-03-26T17:55:51.437Z,61.83
2023-03-26T17:58:01.314Z,61.57
2023-03-26T18:00:09.107Z,61.58
2023-03-26T18:02:18.880Z,60.82
2023-03-26T18:04:34.375Z,59.86
2023-03-26T18:06:54.228Z,60.68
2023-03-26T18:09:13.931Z,61.21
2023-03-26T18:12:00.363Z,61.58
2023-03-26T18:14:35.514Z,61.72
2023-03-26T18:16:46.813Z,62.23
2023-03-26T18:18:54.540Z,62.30
2023-03-26T18:21:03.684Z,62.94
2023-03-26T18:23:23.484Z,62.87
2023-03-26T18:25:34.346Z,63.55
2023-03-26T18:27:42.024Z,63.32
2023-03-26T18:29:48.978Z,63.56
2023-03-26T18:32:00.712Z,64.29
2023-03-26T18:34:14.995Z,63.42
2023-03-26T18:36:21.545Z,64.05
2023-03-26T18:38:35.825Z,62.46
2023-03-26T18:40:45.418Z,62.43
2023-03-26T18:42:52.827Z,61.69
2023-03-26T18:45:02.071Z,60.69
2023-03-26T18:47:13.721Z,59.62
2023-03-26T18:49:19.872Z,59.93
2023-03-26T18:51:25.533Z,60.13
2023-03-26T18:53:32.946Z,60.16
2023-03-26T18:55:40.279Z,60.70
2023-03-26T18:57:49.668Z,61.21
2023-03-26T18:59:56.847Z,61.86
2023-03-26T19:02:04.517Z,61.72
2023-03-26T19:04:17.463Z,62.67
2023-03-26T19:06:23.494Z,62.90
2023-03-26T19:08:30.607Z,63.15
2023-03-26T19:10:36.837Z,63.59
2023-03-26T19:12:41.826Z,64.27
2023-03-26T19:15:01.196Z,63.86
2023-03-26T19:17:09.031Z,63.75
2023-03-26T19:19:23.274Z,63.46
2023-03-26T19:21:28.606Z,62.54
2023-03-26T19:23:35.978Z,63.13
2023-03-26T19:25:46.335Z,62.48
2023-03-26T19:27:52.015Z,62.45
2023-03-26T19:29:57.242Z,62.65
2023-03-26T19:32:06.535Z,62.72
2023-03-26T19:34:28.094Z,63.36
2023-03-26T19:36:37.191Z,63.13
2023-03-26T19:38:47.371Z,63.36
2023-03-26T19:40:53.614Z,63.61
2023-03-26T19:43:01.644Z,63.60
2023-03-26T19:45:17.274Z,64.28
2023-03-26T19:47:35.222Z,63.59
2023-03-26T19:49:56.909Z,64.07
2023-03-26T19:52:16.475Z,64.19
2023-03-26T19:54:21.439Z,63.99
2023-03-26T19:56:27.057Z,63.79
2023-03-26T19:58:32.134Z,63.75
2023-03-26T20:00:37.040Z,64.65
2023-03-26T20:02:42.697Z,64.12
2023-03-26T20:04:47.939Z,64.36
2023-03-26T20:06:55.366Z,65.43
2023-03-26T20:09:01.285Z,64.87
2023-03-26T20:11:06.408Z,64.68
2023-03-26T20:13:17.486Z,65.06
2023-03-26T20:15:26.231Z,65.59
2023-03-26T20:17:31.280Z,65.35
2023-03-26T20:19:39.305Z,65.37
2023-03-26T20:21:47.296Z,65.70
2023-03-26T20:23:56.053Z,65.94
2023-03-26T20:26:00.906Z,66.53
2023-03-26T20:28:06.111Z,66.19
2023-03-26T20:30:14.054Z,66.36
2023-03-26T20:32:25.709Z,66.66
2023-03-26T20:34:32.253Z,66.82
2023-03-26T20:36:37.153Z,66.60
2023-03-26T20:38:44.003Z,66.61
2023-03-26T20:40:52.291Z,66.39
2023-03-26T20:42:57.042Z,66.41
2023-03-26T20:45:02.133Z,66.77
2023-03-26T20:47:07.673Z,67.17
2023-03-26T20:49:13.190Z,67.19
2023-03-26T20:51:20.095Z,66.40
2023-03-26T20:53:25.150Z,66.07
2023-03-26T20:55:30.087Z,66.67
2023-03-26T20:57:37.413Z,65.47
2023-03-26T20:59:44.775Z,65.90
2023-03-26T21:01:50.129Z,65.86
2023-03-26T21:03:54.909Z,66.03
2023-03-26T21:06:03.408Z,66.00
2023-03-26T21:08:09.028Z,66.46
2023-03-26T21:10:20.754Z,66.20
2023-03-26T21:12:39.938Z,66.48
2023-03-26T21:14:48.088Z,65.64
2023-03-26T21:16:53.795Z,65.64
2023-03-26T21:18:59.603Z,66.09
2023-03-26T21:21:28.239Z,66.74
2023-03-26T21:23:39.301Z,66.18
2023-03-26T21:25:56.723Z,66.39
2023-03-26T21:28:12.098Z,66.67
2023-03-26T21:30:20.351Z,67.26
2023-03-26T21:32:26.466Z,67.27
2023-03-26T21:34:33.584Z,67.60
2023-03-26T21:36:40.392Z,68.21
2023-03-26T21:38:46.139Z,69.11
2023-03-26T21:40:58.312Z,68.23
2023-03-26T21:43:04.193Z,68.45
2023-03-26T21:45:10.712Z,68.43
2023-03-26T21:47:21.641Z,68.35
2023-03-26T21:49:27.040Z,67.72
2023-03-26T21:51:34.243Z,68.11
2023-03-26T21:53:39.833Z,68.65
2023-03-26T21:55:54.130Z,68.53
2023-03-26T21:58:19.640Z,68.64
2023-03-26T22:00:33.602Z,70.63
2023-03-26T22:02:57.651Z,72.72
2023-03-26T22:05:07.032Z,74.54
2023-03-26T22:07:16.576Z,74.03
2023-03-26T22:09:30.078Z,74.93
2023-03-26T22:11:41.676Z,73.42
2023-03-26T22:13:46.950Z,74.96
2023-03-26T22:15:51.731Z,74.47
2023-03-26T22:18:03.435Z,73.93
2023-03-26T22:20:13.659Z,73.40
2023-03-26T22:22:18.691Z,74.43
2023-03-26T22:24:23.669Z,73.70
2023-03-26T22:26:28.612Z,74.73
2023-03-26T22:28:33.598Z,73.49
2023-03-26T22:30:38.929Z,73.57
2023-03-26T22:32:46.145Z,73.57
2023-03-26T22:34:54.014Z,74.28
2023-03-26T22:36:59.310Z,74.76
2023-03-26T22:39:04.672Z,74.79
2023-03-26T22:41:14.089Z,74.51
2023-03-26T22:43:19.152Z,75.35
2023-03-26T22:45:24.015Z,75.08
2023-03-26T22:47:30.769Z,76.08
2023-03-26T22:49:35.979Z,76.25
2023-03-26T22:51:45.983Z,76.61
2023-03-26T22:53:51.014Z,76.15
2023-03-26T22:55:55.840Z,76.47
2023-03-26T22:58:00.763Z,76.13
2023-03-26T23:00:14.978Z,76.74
2023-03-26T23:02:19.955Z,77.24
2023-03-26T23:04:32.342Z,76.94
2023-03-26T23:06:37.385Z,76.76
2023-03-26T23:08:48.231Z,77.84
2023-03-26T23:10:55.869Z,77.13
2023-03-26T23:13:01.085Z,77.97
2023-03-26T23:15:06.553Z,78.09
2023-03-26T23:17:14.787Z,78.68
2023-03-26T23:19:20.116Z,78.92
2023-03-26T23:21:25.824Z,79.21
2023-03-26T23:23:32.989Z,79.31
2023-03-26T23:25:41.021Z,80.03
2023-03-26T23:27:46.019Z,79.94
2023-03-26T23:29:50.724Z,79.47
2023-03-26T23:31:56.352Z,79.61
2023-03-26T23:34:02.558Z,80.32
2023-03-26T23:36:10.272Z,80.05
2023-03-26T23:38:16.051Z,80.82
2023-03-26T23:40:22.076Z,80.75
2023-03-26T23:42:29.993Z,80.94
2023-03-26T23:44:35.184Z,81.05
2023-03-26T23:46:43.052Z,81.49
2023-03-26T23:48:51.194Z,81.40
2023-03-26T23:51:02.832Z,82.62
2023-03-26T23:53:10.177Z,81.71
2023-03-26T23:55:17.455Z,81.52
2023-03-26T23:57:22.559Z,81.43
2023-03-26T23:59:30.148Z,82.10
